Shoukeimaruno.3 — JI3587 — position and weather

sailwx.info

Track history (hours):
 
Tides and Currents Weather Stations Pressure Air Temp Water Temp Dewpoint Dewpoint Depression Visibility Wind Speed Wind Dir Waves Ship Positions

Shoukeimaruno.3

Last reported at 2017-Feb-14 14:12 UTC. Time now 2017-Feb-21 07:59 UTC.
Position N 35°16' E 139°46'.

Length 77 m; draft 4.2 m.

Type: Cargo ship. MMSI: 431300325.

Date/timePositionNaut miles runAvg speedWind from/ knotsBaromVisibWave heightAir tempDewpointWater temp
2017-Feb-14 14:12N 35°16' E 139°46'812.7
2017-Feb-14 13:33N 35°23' E 139°41'3 0.6
2017-Feb-14 08:33N 35°24' E 139°37'1010.1
2017-Feb-14 07:33N 35°16' E 139°46'  
2017-Feb-09 09:05N 35°13' E 139°46'713.1
2017-Feb-09 08:33N 35°19' E 139°43'1111.5
2017-Feb-09 07:34N 35°29' E 139°50'6 0.2
2017-Feb-08 06:30N 35°29' E 139°57'1 0.2
2017-Feb-08 02:21N 35°29' E 139°56'810.2
2017-Feb-08 01:33N 35°25' E 139°47'10 9.9
2017-Feb-08 00:32N 35°15' E 139°47'  
Track history (hours):
 
Tides and Currents Weather Stations Pressure Air Temp Water Temp Dewpoint Dewpoint Depression Visibility Wind Speed Wind Dir Waves Ship Positions

Shoukeimaruno.3

Last reported at 2017-Feb-14 14:12 UTC. Time now 2017-Feb-21 07:59 UTC.
Position N 35°16' E 139°46'.

Length 77 m; draft 4.2 m.

Type: Cargo ship. MMSI: 431300325.

Date/timePositionNaut miles runAvg speedWind from/ knotsBaromVisibWave heightAir tempDewpointWater temp
2017-Feb-14 14:12N 35°16' E 139°46'812.7
2017-Feb-14 13:33N 35°23' E 139°41'3 0.6
2017-Feb-14 08:33N 35°24' E 139°37'1010.1
2017-Feb-14 07:33N 35°16' E 139°46'  
2017-Feb-09 09:05N 35°13' E 139°46'713.1
2017-Feb-09 08:33N 35°19' E 139°43'1111.5
2017-Feb-09 07:34N 35°29' E 139°50'6 0.2
2017-Feb-08 06:30N 35°29' E 139°57'1 0.2
2017-Feb-08 02:21N 35°29' E 139°56'810.2
2017-Feb-08 01:33N 35°25' E 139°47'10 9.9
2017-Feb-08 00:32N 35°15' E 139°47'  

Dump ship's entire track history